^^
Your Local Weather - Clay, NY Station Historical Data
Daily Summary for January 7, 2018 Units:  Metric    English   Both
« Previous Day
Next Day »
Daily Weekly Monthly Yearly Custom
  High: Low: Average:
Temperature: -3.9 °C -23.3 °C -14.9 °C
Dew Point: -11.7 °C -25.7 °C -19 °C
Humidity: 84% 49% 72%
Wind Speed: 9.7km/h 0km/h 2.1km/h
Wind Gust: 14.5km/h - -
Wind- - SE
Pressure: 1034.8 hPa 1019.5 hPa -
Precipitation: 0 mm    
Historical Graphs
 
 
Tabular Data for January 7, 2018
Time Temperature Dew Point Pressure Wind Wind Speed Wind Gust Humidity Rainfall Rate (Hourly) solar
00:02 -16.7 °C -18.7 °C 1032.7 hPa NW 1.6 km/h 1.6 km/h 84% 0 mm 0 W/m2
00:10 -16.7 °C -18.8 °C 1033.1 hPa NE 1.6 km/h 1.6 km/h 84% 0 mm 0 W/m2
00:16 -16.9 °C -19.2 °C 1033.1 hPa NNE 1.6 km/h 3.2 km/h 83% 0 mm 0 W/m2
00:22 -17.2 °C -19.4 °C 1033.1 hPa NNE 1.6 km/h 3.2 km/h 83% 0 mm 0 W/m2
00:28 -17.6 °C -19.7 °C 1033.1 hPa NE 1.6 km/h 4.8 km/h 83% 0 mm 0 W/m2
00:34 -17.7 °C -19.9 °C 1033.1 hPa North 1.6 km/h 4.8 km/h 83% 0 mm 0 W/m2
00:40 -17.9 °C -20.1 °C 1033.4 hPa North 3.2 km/h 3.2 km/h 83% 0 mm 0 W/m2
00:46 -18 °C -20.3 °C 1033.4 hPa North 1.6 km/h 3.2 km/h 82% 0 mm 0 W/m2
00:54 -18.1 °C -20.2 °C 1033.4 hPa Calm   1.6 km/h 83% 0 mm 0 W/m2
01:04 -18.2 °C -20.3 °C 1033.4 hPa NNW 1.6 km/h 1.6 km/h 83% 0 mm 0 W/m2
01:10 -18.3 °C -20.7 °C 1033.4 hPa NNE 1.6 km/h 3.2 km/h 82% 0 mm 0 W/m2
01:16 -18.5 °C -20.8 °C 1033.4 hPa NE 1.6 km/h 3.2 km/h 82% 0 mm 0 W/m2
01:28 -18.7 °C -21.2 °C 1033.4 hPa North 3.2 km/h 4.8 km/h 81% 0 mm 0 W/m2
01:34 -18.8 °C -21.3 °C 1033.4 hPa NNW 3.2 km/h 4.8 km/h 81% 0 mm 0 W/m2
01:42 -18.9 °C -21.2 °C 1033.4 hPa North 1.6 km/h 1.6 km/h 82% 0 mm 0 W/m2
01:50 -18.9 °C -21.2 °C 1033.4 hPa North 1.6 km/h 1.6 km/h 82% 0 mm 0 W/m2
01:56 -19.1 °C -21.6 °C 1033.4 hPa NE 1.6 km/h 3.2 km/h 81% 0 mm 0 W/m2
02:02 -19.2 °C -21.7 °C 1033.7 hPa Calm   1.6 km/h 81% 0 mm 0 W/m2
02:08 -19.3 °C -21.7 °C 1034.1 hPa Calm   1.6 km/h 81% 0 mm 0 W/m2
02:14 -19.4 °C -21.9 °C 1034.1 hPa Calm     81% 0 mm 0 W/m2
02:20 -19.6 °C -22 °C 1034.1 hPa Calm     81% 0 mm 0 W/m2
02:26 -19.7 °C -22.2 °C 1034.1 hPa Calm     81% 0 mm 0 W/m2
02:34 -19.8 °C -22.1 °C 1034.1 hPa Calm     82% 0 mm 0 W/m2
02:40 -19.9 °C -22.3 °C 1034.1 hPa Calm     81% 0 mm 0 W/m2
02:46 -19.9 °C -22.4 °C 1034.1 hPa Calm     81% 0 mm 0 W/m2
02:52 -20.1 °C -22.6 °C 1034.4 hPa Calm     81% 0 mm 0 W/m2
03:02 -20.3 °C -22.7 °C 1034.1 hPa Calm     81% 0 mm 0 W/m2
03:10 -20.6 °C -22.9 °C 1034.1 hPa Calm     81% 0 mm 0 W/m2
03:16 -20.7 °C -23.1 °C 1034.1 hPa Calm     81% 0 mm 0 W/m2
03:26 -21.1 °C -23.4 °C 1034.1 hPa Calm     81% 0 mm 0 W/m2
03:32 -21.3 °C -23.7 °C 1034.1 hPa Calm     81% 0 mm 0 W/m2
03:38 -21.7 °C -24.1 °C 1034.1 hPa Calm     81% 0 mm 0 W/m2
03:44 -22.1 °C -24.5 °C 1034.1 hPa Calm     81% 0 mm 0 W/m2
03:50 -22.4 °C -24.8 °C 1034.4 hPa Calm     81% 0 mm 0 W/m2
04:04 -22.7 °C -25.1 °C 1034.8 hPa Calm     81% 0 mm 0 W/m2
04:10 -22.4 °C -24.8 °C 1034.8 hPa Calm     81% 0 mm 0 W/m2
04:24 -22.7 °C -25.1 °C 1034.1 hPa Calm     81% 0 mm 0 W/m2
04:30 -22.9 °C -25.2 °C 1034.4 hPa Calm     81% 0 mm 0 W/m2
04:38 -23.2 °C -25.6 °C 1034.1 hPa Calm   1.6 km/h 81% 0 mm 0 W/m2
04:46 -23.3 °C -25.7 °C 1034.1 hPa Calm     81% 0 mm 0 W/m2
04:52 -23.3 °C -25.6 °C 1034.1 hPa Calm     81% 0 mm 0 W/m2
04:58 -23.2 °C -25.5 °C 1034.1 hPa Calm     81% 0 mm 0 W/m2
05:06 -23.1 °C -25.4 °C 1034.1 hPa Calm   1.6 km/h 81% 0 mm 0 W/m2
05:12 -22.7 °C -25.1 °C 1034.1 hPa Calm     81% 0 mm 0 W/m2
05:18 -22.6 °C -24.8 °C 1034.1 hPa Calm     82% 0 mm 0 W/m2
05:24 -22.4 °C -24.6 °C 1034.1 hPa Calm     82% 0 mm 0 W/m2
05:32 -22.2 °C -24.4 °C 1034.1 hPa Calm     82% 0 mm 0 W/m2
05:38 -22.2 °C -24.6 °C 1034.1 hPa Calm   1.6 km/h 81% 0 mm 0 W/m2
05:44 -22 °C -24.2 °C 1034.1 hPa Calm     82% 0 mm 0 W/m2
05:50 -21.9 °C -24.2 °C 1034.1 hPa Calm     82% 0 mm 0 W/m2
05:56 -21.8 °C -24.2 °C 1034.1 hPa Calm     81% 0 mm 0 W/m2
06:04 -21.4 °C -23.8 °C 1034.1 hPa Calm     81% 0 mm 0 W/m2
06:10 -21.4 °C -23.8 °C 1034.1 hPa Calm     81% 0 mm 0 W/m2
06:16 -21.4 °C -23.8 °C 1034.4 hPa Calm     81% 0 mm 0 W/m2
06:22 -21.4 °C -23.8 °C 1034.4 hPa Calm     81% 0 mm 0 W/m2
06:30 -21.4 °C -23.8 °C 1034.8 hPa Calm     81% 0 mm 0 W/m2
06:48 -21.4 °C -23.8 °C 1034.8 hPa Calm     81% 0 mm 0 W/m2
06:54 -21.4 °C -23.8 °C 1034.8 hPa Calm     81% 0 mm 0 W/m2
07:08 -21.4 °C -23.8 °C 1034.8 hPa Calm     81% 0 mm 0 W/m2
07:14 -21.4 °C -23.8 °C 1034.8 hPa Calm     81% 0 mm 0 W/m2
07:20 -21.6 °C -23.9 °C 1034.8 hPa Calm     81% 0 mm 0 W/m2
07:36 -21.8 °C -24.3 °C 1034.4 hPa Calm     80% 0 mm 0 W/m2
07:42 -21.8 °C -24.3 °C 1034.1 hPa Calm     80% 0 mm 0 W/m2
07:48 -21.9 °C -24.4 °C 1034.1 hPa Calm     80% 0 mm 0 W/m2
07:54 -21.8 °C -24.3 °C 1034.4 hPa Calm     80% 0 mm 0 W/m2
08:04 -21.6 °C -24.1 °C 1034.1 hPa Calm   1.6 km/h 80% 0 mm 0 W/m2
08:10 -21.6 °C -24.1 °C 1034.1 hPa Calm   3.2 km/h 80% 0 mm 0 W/m2
08:16 -21.4 °C -24 °C 1034.1 hPa Calm   3.2 km/h 80% 0 mm 0 W/m2
08:22 -21.4 °C -23.9 °C 1034.1 hPa Calm   1.6 km/h 80% 0 mm 0 W/m2
08:28 -21.3 °C -24 °C 1034.1 hPa Calm   1.6 km/h 79% 0 mm 0 W/m2
08:44 -21.4 °C -24.1 °C 1034.1 hPa Calm   1.6 km/h 79% 0 mm 14 W/m2
08:50 -20.9 °C -23.6 °C 1034.1 hPa ESE 1.6 km/h 1.6 km/h 79% 0 mm 7 W/m2
08:56 -20.9 °C -23.8 °C 1034.1 hPa East 1.6 km/h 3.2 km/h 78% 0 mm 7 W/m2
09:04 -21 °C -23.8 °C 1034.1 hPa ENE 1.6 km/h 1.6 km/h 78% 0 mm 11 W/m2
09:14 -20.2 °C -23 °C 1034.4 hPa ENE 1.6 km/h 1.6 km/h 78% 0 mm 12 W/m2
09:22 -19.7 °C -22.7 °C 1034.1 hPa ESE 1.6 km/h 1.6 km/h 77% 0 mm 18 W/m2
09:30 -19.9 °C -23.1 °C 1034.1 hPa East 1.6 km/h 1.6 km/h 76% 0 mm 12 W/m2
09:36 -20.1 °C -23.1 °C 1034.1 hPa East 1.6 km/h 1.6 km/h 77% 0 mm 12 W/m2
09:42 -20 °C -23 °C 1034.1 hPa ENE 1.6 km/h 1.6 km/h 77% 0 mm 18 W/m2
09:48 -19.3 °C -22.3 °C 1034.1 hPa ENE 1.6 km/h 1.6 km/h 77% 0 mm 23 W/m2
09:56 -18.8 °C -22 °C 1034.1 hPa ESE 1.6 km/h 3.2 km/h 76% 0 mm 25 W/m2
10:02 -18.7 °C -21.8 °C 1033.7 hPa ENE 1.6 km/h 4.8 km/h 76% 0 mm 28 W/m2
10:08 -18.7 °C -22 °C 1034.1 hPa ENE 1.6 km/h 4.8 km/h 75% 0 mm 28 W/m2
10:14 -18 °C -21.1 °C 1033.7 hPa ESE 1.6 km/h 1.6 km/h 77% 0 mm 33 W/m2
10:24 -17.6 °C -20.8 °C 1033.7 hPa SE 1.6 km/h 1.6 km/h 76% 0 mm 19 W/m2
10:30 -17.3 °C -20.6 °C 1033.7 hPa East 1.6 km/h 3.2 km/h 76% 0 mm 25 W/m2
10:36 -17.1 °C -20.3 °C 1033.4 hPa East 1.6 km/h 3.2 km/h 76% 0 mm 30 W/m2
10:44 -16.4 °C -19.8 °C 1033.1 hPa ESE 1.6 km/h 3.2 km/h 75% 0 mm 35 W/m2
10:54 -16.3 °C -19.7 °C 1032.7 hPa East 1.6 km/h 3.2 km/h 75% 0 mm 14 W/m2
11:00 -16.1 °C -19.3 °C 1032.7 hPa SE 1.6 km/h 1.6 km/h 76% 0 mm 26 W/m2
11:04 -15.8 °C -19.3 °C 1032.4 hPa East 1.6 km/h 1.6 km/h 75% 0 mm 28 W/m2
11:10 -15.3 °C -18.8 °C 1032.1 hPa ESE 1.6 km/h 1.6 km/h 75% 0 mm 28 W/m2
11:16 -15.2 °C -18.6 °C 1032.1 hPa ENE 1.6 km/h 3.2 km/h 75% 0 mm 33 W/m2
11:24 -15 °C -18.6 °C 1031.7 hPa ENE 1.6 km/h 4.8 km/h 74% 0 mm 25 W/m2
11:30 -14.7 °C -18.3 °C 1031.7 hPa ENE 1.6 km/h 1.6 km/h 74% 0 mm 25 W/m2
11:36 -14.5 °C -18.1 °C 1031.4 hPa ENE 1.6 km/h 3.2 km/h 74% 0 mm 21 W/m2
11:42 -14.6 °C -18.5 °C 1031.4 hPa ENE 1.6 km/h 1.6 km/h 72% 0 mm 25 W/m2
11:48 -14.6 °C -18.3 °C 1031.4 hPa NE 1.6 km/h 3.2 km/h 73% 0 mm 28 W/m2
11:54 -14.4 °C -18.2 °C 1031 hPa East 1.6 km/h 4.8 km/h 73% 0 mm 23 W/m2
12:04 -14.3 °C -18.3 °C 1031 hPa East 1.6 km/h 4.8 km/h 72% 0 mm 25 W/m2
12:10 -14.3 °C -18.4 °C 1031 hPa East 3.2 km/h 3.2 km/h 71% 0 mm 25 W/m2
12:16 -14.1 °C -18 °C 1030.7 hPa ENE 3.2 km/h 4.8 km/h 72% 0 mm 28 W/m2
12:22 -13.7 °C -17.4 °C 1030.4 hPa ENE 3.2 km/h 3.2 km/h 73% 0 mm 25 W/m2
12:28 -13.3 °C -17.1 °C 1030.4 hPa SE 1.6 km/h 3.2 km/h 73% 0 mm 32 W/m2
12:38 -11.7 °C -15.6 °C 1030 hPa South 1.6 km/h 4.8 km/h 73% 0 mm 39 W/m2
12:44 -11.2 °C -15.4 °C 1029.7 hPa South 3.2 km/h 8 km/h 71% 0 mm 40 W/m2
12:50 -11.2 °C -15.7 °C 1029.3 hPa SW 4.8 km/h 4.8 km/h 69% 0 mm 39 W/m2
12:56 -10.9 °C -15.3 °C 1029.3 hPa SSE 4.8 km/h 8 km/h 70% 0 mm 40 W/m2
13:03 -11.1 °C -15.6 °C 1029 hPa SW 4.8 km/h 4.8 km/h 69% 0 mm 44 W/m2
13:08 -10.6 °C -15.2 °C 1029 hPa SSW 3.2 km/h 6.4 km/h 69% 0 mm 44 W/m2
13:14 -10.5 °C -15.4 °C 1028.7 hPa SSE 3.2 km/h 9.7 km/h 67% 0 mm 35 W/m2
13:20 -10.9 °C -16.1 °C 1028.3 hPa SSE 6.4 km/h 9.7 km/h 66% 0 mm 32 W/m2
13:30 -10.6 °C -15.5 °C 1028 hPa SE 4.8 km/h 4.8 km/h 67% 0 mm 35 W/m2
13:38 -10.6 °C -15.7 °C 1028 hPa SSE 4.8 km/h 4.8 km/h 66% 0 mm 35 W/m2
13:44 -10.4 °C -15.9 °C 1027.7 hPa SE 4.8 km/h 8 km/h 64% 0 mm 33 W/m2
13:50 -10.4 °C -15.7 °C 1027.7 hPa SSE 4.8 km/h 4.8 km/h 65% 0 mm 32 W/m2
13:58 -10.2 °C -15.7 °C 1027.7 hPa SSE 4.8 km/h 6.4 km/h 64% 0 mm 28 W/m2
14:06 -10.1 °C -15.8 °C 1027.7 hPa ESE 4.8 km/h 6.4 km/h 63% 0 mm 32 W/m2
14:12 -10 °C -15.9 °C 1027.3 hPa SE 4.8 km/h 6.4 km/h 62% 0 mm 35 W/m2
14:18 -9.8 °C -15.9 °C 1027.3 hPa SE 4.8 km/h 6.4 km/h 61% 0 mm 35 W/m2
14:24 -9.6 °C -15.7 °C 1027.3 hPa South 4.8 km/h 6.4 km/h 61% 0 mm 30 W/m2
14:30 -9.7 °C -16.4 °C 1027.3 hPa SE 4.8 km/h 4.8 km/h 58% 0 mm 30 W/m2
14:36 -9.5 °C -16.2 °C 1027 hPa South 4.8 km/h 6.4 km/h 58% 0 mm 32 W/m2
14:46 -9.5 °C -16.7 °C 1026.6 hPa SE 6.4 km/h 8 km/h 56% 0 mm 30 W/m2
14:52 -9.4 °C -16.8 °C 1026.6 hPa South 4.8 km/h 9.7 km/h 55% 0 mm 33 W/m2
14:58 -9.4 °C -16.8 °C 1026.3 hPa SSE 6.4 km/h 11.3 km/h 55% 0 mm 21 W/m2
15:04 -9.5 °C -17.1 °C 1026 hPa SSE 6.4 km/h 11.3 km/h 54% 0 mm 21 W/m2
15:10 -9.4 °C -16.6 °C 1026 hPa SE 4.8 km/h 4.8 km/h 56% 0 mm 32 W/m2
15:22 -9.3 °C -16.5 °C 1025.6 hPa SSE 3.2 km/h 4.8 km/h 56% 0 mm 9 W/m2
15:30 -9.2 °C -16.2 °C 1025.6 hPa SSE 1.6 km/h 1.6 km/h 57% 0 mm 11 W/m2
15:36 -9.1 °C -15.8 °C 1025.6 hPa SSE 1.6 km/h 1.6 km/h 58% 0 mm 9 W/m2
15:42 -9.6 °C -15.7 °C 1025.6 hPa ENE 1.6 km/h 1.6 km/h 61% 0 mm 7 W/m2
16:04 -10.2 °C -15.2 °C 1024.9 hPa East 1.6 km/h 3.2 km/h 67% 0 mm 5 W/m2
16:10 -10.2 °C -15.1 °C 1024.9 hPa East 1.6 km/h 1.6 km/h 67% 0 mm 0 W/m2
16:18 -10.2 °C -14.7 °C 1024.6 hPa East 1.6 km/h 3.2 km/h 70% 0 mm 0 W/m2
16:20 -10.2 °C -14.8 °C 1024.6 hPa East 1.6 km/h 1.6 km/h 69% 0 mm 0 W/m2
16:26 -10.2 °C -14.5 °C 1024.6 hPa ESE 1.6 km/h 4.8 km/h 71% 0 mm 0 W/m2
16:34 -9.3 °C -14.9 °C 1024.3 hPa SE 3.2 km/h 8 km/h 64% 0 mm 0 W/m2
16:42 -8.8 °C -15.2 °C 1023.9 hPa SE 3.2 km/h 6.4 km/h 60% 0 mm 0 W/m2
16:48 -8.6 °C -15.2 °C 1023.9 hPa SSE 4.8 km/h 6.4 km/h 59% 0 mm 0 W/m2
17:04 -8.6 °C -15.2 °C 1023.6 hPa South 3.2 km/h 3.2 km/h 59% 0 mm 0 W/m2
17:12 -8.4 °C -15.4 °C 1023.6 hPa SE 3.2 km/h 4.8 km/h 57% 0 mm 0 W/m2
17:18 -8.3 °C -15.2 °C 1023.2 hPa SE 3.2 km/h 8 km/h 58% 0 mm 0 W/m2
17:26 -8.2 °C -15.2 °C 1023.2 hPa SSE 3.2 km/h 4.8 km/h 57% 0 mm 0 W/m2
17:38 -8.2 °C -14.4 °C 1023.2 hPa ESE 1.6 km/h 3.2 km/h 61% 0 mm 0 W/m2
17:46 -8.4 °C -13.8 °C 1022.9 hPa Calm   1.6 km/h 65% 0 mm 0 W/m2
17:58 -8.6 °C -13.4 °C 1022.9 hPa Calm     68% 0 mm 0 W/m2
18:04 -8.5 °C -13.3 °C 1022.9 hPa Calm     68% 0 mm 0 W/m2
18:10 -8.4 °C -13.1 °C 1022.6 hPa Calm     69% 0 mm 0 W/m2
18:16 -8.5 °C -13.2 °C 1022.6 hPa Calm     69% 0 mm 0 W/m2
18:22 -8.6 °C -12.9 °C 1022.2 hPa Calm   3.2 km/h 71% 0 mm 0 W/m2
18:28 -8.6 °C -12.6 °C 1022.2 hPa Calm   3.2 km/h 73% 0 mm 0 W/m2
18:34 -8.5 °C -12.5 °C 1022.2 hPa Calm     73% 0 mm 0 W/m2
18:40 -8.3 °C -12.5 °C 1022.2 hPa Calm     72% 0 mm 0 W/m2
18:46 -8.2 °C -12.7 °C 1022.2 hPa Calm     70% 0 mm 0 W/m2
18:52 -8.3 °C -12.4 °C 1022.2 hPa Calm     72% 0 mm 0 W/m2
18:58 -8.3 °C -12.3 °C 1021.9 hPa Calm     73% 0 mm 0 W/m2
19:08 -8.4 °C -12.3 °C 1021.9 hPa Calm     74% 0 mm 0 W/m2
19:18 -8.4 °C -12.1 °C 1021.9 hPa Calm     75% 0 mm 0 W/m2
19:26 -8.4 °C -11.9 °C 1021.9 hPa Calm     76% 0 mm 0 W/m2
19:40 -7.4 °C -12.4 °C 1021.6 hPa ESE 1.6 km/h 1.6 km/h 67% 0 mm 0 W/m2
19:46 -7 °C -12.7 °C 1021.9 hPa SE 1.6 km/h 4.8 km/h 64% 0 mm 0 W/m2
19:52 -6.6 °C -13.5 °C 1021.2 hPa SSW 3.2 km/h 3.2 km/h 58% 0 mm 0 W/m2
20:02 -5.9 °C -14.2 °C 1021.2 hPa South 6.4 km/h 9.7 km/h 52% 0 mm 0 W/m2
20:10 -5.7 °C -14.3 °C 1020.9 hPa South 8 km/h 8 km/h 51% 0 mm 0 W/m2
20:16 -5.7 °C -14.4 °C 1020.9 hPa SW 8 km/h 8 km/h 50% 0 mm 0 W/m2
20:22 -5.6 °C -14.3 °C 1020.5 hPa South 8 km/h 11.3 km/h 50% 0 mm 0 W/m2
20:28 -5.4 °C -14.5 °C 1020.5 hPa South 9.7 km/h 14.5 km/h 49% 0 mm 0 W/m2
20:34 -5.4 °C -14.4 °C 1020.5 hPa SSW 9.7 km/h 11.3 km/h 49% 0 mm 0 W/m2
20:40 -5.4 °C -14.2 °C 1020.5 hPa SW 8 km/h 9.7 km/h 50% 0 mm 0 W/m2
20:46 -5.3 °C -14.3 °C 1020.2 hPa South 8 km/h 14.5 km/h 49% 0 mm 0 W/m2
21:02 -5.1 °C -13.9 °C 1020.2 hPa South 6.4 km/h 12.9 km/h 50% 0 mm 0 W/m2
21:12 -4.9 °C -13.8 °C 1020.2 hPa South 4.8 km/h 9.7 km/h 50% 0 mm 0 W/m2
21:18 -4.8 °C -13.4 °C 1020.2 hPa SSE 6.4 km/h 9.7 km/h 51% 0 mm 0 W/m2
21:28 -4.8 °C -13.2 °C 1020.2 hPa South 4.8 km/h 8 km/h 52% 0 mm 0 W/m2
21:36 -4.6 °C -13 °C 1020.2 hPa SSW 6.4 km/h 8 km/h 52% 0 mm 0 W/m2
21:42 -4.4 °C -12.8 °C 1020.2 hPa SW 6.4 km/h 8 km/h 52% 0 mm 0 W/m2
22:04 -4.3 °C -12.2 °C 1019.9 hPa South 4.8 km/h 6.4 km/h 54% 0 mm 0 W/m2
22:28 -3.9 °C -11.7 °C 1019.5 hPa SSW 6.4 km/h 9.7 km/h 55% 0 mm 0 W/m2
Country Meadow, Clay, NY, USA
Compliments of Weather Underground - 2 mb